createdAt,value
2017-02-03T00:00:23.483Z,60.76
2017-02-03T00:01:23.471Z,60.57
2017-02-03T00:02:23.457Z,61.43
2017-02-03T00:03:23.045Z,61.71
2017-02-03T00:04:23.428Z,62.28
2017-02-03T00:05:23.017Z,62.85
2017-02-03T00:06:23.404Z,63.04
2017-02-03T00:07:22.994Z,62.47
2017-02-03T00:08:23.371Z,63.6
2017-02-03T00:09:23.361Z,63.6
2017-02-03T00:10:23.347Z,63.32
2017-02-03T00:11:23.332Z,64.08
2017-02-03T00:12:23.317Z,63.32
2017-02-03T00:13:23.307Z,63.79
2017-02-03T00:14:23.290Z,63.13
2017-02-03T00:15:23.276Z,64.27
2017-02-03T00:16:23.265Z,64.17
2017-02-03T00:17:22.855Z,63.89
2017-02-03T00:18:23.231Z,63.98
2017-02-03T00:19:22.822Z,63.13
2017-02-03T00:20:23.209Z,64.65
2017-02-03T00:21:23.194Z,65.69
2017-02-03T00:22:23.183Z,66.07
2017-02-03T00:23:23.169Z,65.22
2017-02-03T00:24:23.156Z,64.93
2017-02-03T00:25:23.142Z,65.03
2017-02-03T00:26:23.127Z,65.88
2017-02-03T00:27:23.113Z,65.97
2017-02-03T00:28:23.102Z,65.88
2017-02-03T00:29:23.086Z,65.59
2017-02-03T00:30:23.072Z,67.21
2017-02-03T00:31:23.060Z,66.07
2017-02-03T00:32:23.046Z,66.64
2017-02-03T00:33:23.030Z,65.88
2017-02-03T00:34:23.015Z,65.59
2017-02-03T00:35:23.007Z,64.84
2017-02-03T00:36:22.990Z,64.93
2017-02-03T00:37:22.976Z,64.93
2017-02-03T00:38:22.962Z,66.45
2017-02-03T00:39:22.948Z,67.21
2017-02-03T00:40:22.935Z,67.21
2017-02-03T00:41:22.922Z,65.5
2017-02-03T00:42:22.910Z,64.65
2017-02-03T00:43:22.893Z,64.46
2017-02-03T00:44:22.880Z,63.7
2017-02-03T00:45:22.868Z,64.55
2017-02-03T00:46:22.463Z,63.23
2017-02-03T00:47:22.841Z,61.9
2017-02-03T00:48:22.827Z,61.33
2017-02-03T00:49:22.811Z,61.71
2017-02-03T00:50:22.401Z,63.42
2017-02-03T00:51:22.783Z,63.6
2017-02-03T00:52:22.770Z,62.85
2017-02-03T00:53:22.760Z,60.19
2017-02-03T00:54:22.744Z,58.48
2017-02-03T00:55:22.731Z,56.4
2017-02-03T00:56:22.732Z,54.13
2017-02-03T00:57:22.702Z,54.69
2017-02-03T00:58:22.689Z,53.08
2017-02-03T00:59:22.677Z,52.23
2017-02-03T01:00:22.661Z,52.51
2017-02-03T01:01:22.648Z,51.95
2017-02-03T01:02:22.635Z,50.81
2017-02-03T01:03:22.621Z,50.15
2017-02-03T01:04:22.607Z,50.71
2017-02-03T01:05:22.594Z,51.47
2017-02-03T01:06:22.584Z,51.18
2017-02-03T01:07:22.567Z,50.99
2017-02-03T01:08:22.552Z,50.52
2017-02-03T01:09:22.544Z,50.62
2017-02-03T01:10:22.529Z,50.9
2017-02-03T01:11:22.543Z,49.67
2017-02-03T01:12:22.502Z,47.87
2017-02-03T01:13:22.487Z,49.95
2017-02-03T01:14:22.474Z,50.59
2017-02-03T01:15:22.457Z,50.15
2017-02-03T01:16:22.443Z,50.05
2017-02-03T01:17:22.429Z,49.95
2017-02-03T01:18:22.420Z,48.82
2017-02-03T01:19:22.406Z,47.39
2017-02-03T01:20:22.391Z,47.96
2017-02-03T01:21:22.376Z,47.28
2017-02-03T01:22:22.369Z,47.02
2017-02-03T01:23:22.346Z,50.02
2017-02-03T01:24:22.338Z,50.12
2017-02-03T01:25:22.328Z,48.63
2017-02-03T01:26:22.310Z,48.41
2017-02-03T01:27:22.298Z,50.02
2017-02-03T01:28:22.281Z,49.95
2017-02-03T01:29:22.272Z,48.79
2017-02-03T01:30:22.254Z,48.89
2017-02-03T01:31:22.239Z,48.6
2017-02-03T01:32:22.243Z,48.82
2017-02-03T01:33:22.214Z,47.47
2017-02-03T01:34:22.201Z,48.51
2017-02-03T01:35:22.187Z,48.32
2017-02-03T01:36:22.173Z,47.56
2017-02-03T01:37:22.159Z,46.61
2017-02-03T01:38:22.145Z,47.85
2017-02-03T01:39:22.133Z,48.7
2017-02-03T01:40:22.119Z,50.4
2017-02-03T01:41:21.707Z,46.8
2017-02-03T01:42:22.088Z,47.47
2017-02-03T01:43:21.681Z,45.57
2017-02-03T01:44:22.066Z,46.71
2017-02-03T01:45:22.047Z,46.42
2017-02-03T01:46:22.034Z,47.09
2017-02-03T01:47:22.020Z,46.42
2017-02-03T01:48:22.006Z,47.18
2017-02-03T01:49:21.996Z,47.66
2017-02-03T01:50:21.978Z,48.13
2017-02-03T01:51:21.965Z,48.41
2017-02-03T01:52:21.954Z,48.51
2017-02-03T01:53:21.940Z,48.79
2017-02-03T01:54:21.922Z,48.6
2017-02-03T01:55:21.911Z,49.17
2017-02-03T01:56:21.898Z,50.49
2017-02-03T01:57:21.884Z,50.69
2017-02-03T01:58:21.870Z,48.89
2017-02-03T01:59:21.856Z,48.79
2017-02-03T02:00:21.842Z,50.12
2017-02-03T02:01:21.833Z,48.89
2017-02-03T02:02:21.824Z,47.75
2017-02-03T02:03:21.803Z,49.46
2017-02-03T02:04:21.791Z,48.89
2017-02-03T02:05:21.776Z,49.27
2017-02-03T02:06:21.760Z,50.31
2017-02-03T02:07:21.749Z,48.98
2017-02-03T02:08:21.836Z,49.74
2017-02-03T02:09:21.721Z,49.36
2017-02-03T02:10:21.709Z,51.54
2017-02-03T02:11:21.692Z,50.21
2017-02-03T02:12:21.683Z,49.84
2017-02-03T02:13:21.664Z,47.28
2017-02-03T02:14:21.653Z,51.07
2017-02-03T02:15:21.637Z,53.06
2017-02-03T02:16:21.626Z,52.01
2017-02-03T02:17:21.645Z,52.58
2017-02-03T02:18:21.599Z,51.45
2017-02-03T02:19:21.585Z,50.21
2017-02-03T02:20:21.573Z,49.36
2017-02-03T02:21:21.557Z,47.56
2017-02-03T02:22:21.541Z,47.75
2017-02-03T02:23:21.526Z,47.2
2017-02-03T02:24:21.517Z,49.08
2017-02-03T02:25:21.502Z,49.36
2017-02-03T02:26:21.487Z,53.91
2017-02-03T02:27:21.475Z,52.58
2017-02-03T02:28:21.461Z,50.69
2017-02-03T02:29:21.447Z,50.21
2017-02-03T02:30:21.432Z,52.48
2017-02-03T02:31:21.419Z,52.01
2017-02-03T02:32:21.404Z,49.65
2017-02-03T02:33:21.389Z,49.93
2017-02-03T02:34:21.379Z,50.88
2017-02-03T02:35:21.362Z,53.06
2017-02-03T02:36:21.348Z,54.1
2017-02-03T02:37:21.338Z,52.01
2017-02-03T02:38:21.323Z,52.01
2017-02-03T02:39:21.304Z,51.73
2017-02-03T02:40:21.292Z,52.96
2017-02-03T02:41:21.281Z,53.91
2017-02-03T02:42:21.267Z,55.8
2017-02-03T02:43:21.260Z,54.86
2017-02-03T02:44:21.239Z,54.57
2017-02-03T02:45:21.225Z,55.9
2017-02-03T02:46:21.211Z,56.59
2017-02-03T02:47:21.195Z,58.26
2017-02-03T02:48:21.184Z,59.22
2017-02-03T02:49:21.171Z,61.77
2017-02-03T02:50:21.156Z,61.71
2017-02-03T02:51:21.143Z,61.49
2017-02-03T02:52:21.129Z,60.83
2017-02-03T02:53:21.113Z,59.69
2017-02-03T02:54:21.098Z,58.55
2017-02-03T02:55:21.085Z,58.93
2017-02-03T02:56:21.072Z,58.17
2017-02-03T02:57:21.060Z,57.51
2017-02-03T02:58:21.045Z,58.55
2017-02-03T02:59:21.030Z,59.03
2017-02-03T03:00:21.020Z,59.88
2017-02-03T03:01:21.004Z,58.45
2017-02-03T03:02:20.992Z,57.7
2017-02-03T03:03:20.979Z,57.04
2017-02-03T03:04:20.960Z,56.09
2017-02-03T03:05:20.949Z,57.6
2017-02-03T03:06:20.935Z,58.36
2017-02-03T03:07:20.925Z,57.79
2017-02-03T03:08:20.912Z,59.72
2017-02-03T03:09:20.895Z,61.43
2017-02-03T03:10:20.883Z,62.08
2017-02-03T03:11:20.864Z,61.14
2017-02-03T03:12:20.856Z,60.38
2017-02-03T03:13:20.839Z,59.22
2017-02-03T03:14:20.829Z,58.65
2017-02-03T03:15:20.814Z,56.27
2017-02-03T03:16:20.799Z,54.38
2017-02-03T03:17:20.786Z,52.87
2017-02-03T03:18:20.770Z,52.01
2017-02-03T03:19:20.761Z,51.54
2017-02-03T03:20:20.747Z,49.93
2017-02-03T03:21:20.731Z,48.7
2017-02-03T03:22:20.719Z,49.84
2017-02-03T03:23:20.701Z,50.97
2017-02-03T03:24:20.692Z,50.69
2017-02-03T03:25:20.678Z,50.31
2017-02-03T03:26:20.668Z,50.4
2017-02-03T03:27:20.648Z,49.65
2017-02-03T03:28:20.635Z,48.41
2017-02-03T03:29:20.624Z,45.76
2017-02-03T03:30:20.609Z,45.76
2017-02-03T03:31:20.598Z,46.04
2017-02-03T03:32:20.579Z,47.37
2017-02-03T03:33:20.569Z,47.09
2017-02-03T03:34:20.554Z,45.76
2017-02-03T03:35:20.542Z,46.33
2017-02-03T03:36:20.528Z,45.76
2017-02-03T03:37:20.514Z,45.1
2017-02-03T03:38:20.498Z,43.87
2017-02-03T03:39:20.486Z,45.86
2017-02-03T03:40:20.470Z,45.19
2017-02-03T03:41:20.460Z,44.81
2017-02-03T03:42:20.447Z,43.87
2017-02-03T03:43:20.434Z,44.72
2017-02-03T03:44:20.419Z,44.72
2017-02-03T03:45:20.406Z,46.14
2017-02-03T03:46:20.394Z,45.86
2017-02-03T03:47:20.374Z,44.72
2017-02-03T03:48:20.366Z,44.24
2017-02-03T03:49:20.353Z,42.73
2017-02-03T03:50:20.340Z,42.54
2017-02-03T03:51:20.325Z,41.78
2017-02-03T03:52:20.309Z,41.97
2017-02-03T03:53:20.295Z,42.35
2017-02-03T03:54:20.282Z,41.78
2017-02-03T03:55:20.268Z,41.78
2017-02-03T03:56:20.253Z,42.63
2017-02-03T03:57:20.275Z,41.12
2017-02-03T03:58:20.230Z,39.6
2017-02-03T03:59:20.214Z,38.84
2017-02-03T04:00:20.199Z,40.17
2017-02-03T04:01:20.186Z,40.08
2017-02-03T04:02:20.174Z,40.45
2017-02-03T04:03:20.160Z,40.83
2017-02-03T04:04:20.145Z,39.7
2017-02-03T04:05:20.130Z,42.54
2017-02-03T04:06:20.113Z,45.1
2017-02-03T04:07:19.705Z,45.86
2017-02-03T04:08:20.090Z,43.96
2017-02-03T04:09:20.075Z,43.2
2017-02-03T04:10:20.069Z,43.96
2017-02-03T04:11:20.045Z,44.53
2017-02-03T04:12:20.033Z,45.67
2017-02-03T04:13:20.019Z,46.71
2017-02-03T04:14:20.006Z,46.9
2017-02-03T04:15:19.993Z,47.28
2017-02-03T04:16:19.981Z,46.71
2017-02-03T04:17:19.966Z,45.19
2017-02-03T04:18:19.949Z,43.96
2017-02-03T04:19:19.937Z,44.34
2017-02-03T04:20:19.926Z,44.53
2017-02-03T04:21:19.906Z,45.1
2017-02-03T04:22:19.896Z,45.19
2017-02-03T04:23:19.883Z,44.53
2017-02-03T04:24:19.869Z,45.86
2017-02-03T04:25:19.854Z,45.86
2017-02-03T04:26:19.878Z,45.76
2017-02-03T04:27:19.825Z,45.19
2017-02-03T04:28:19.814Z,47.09
2017-02-03T04:29:19.797Z,45.95
2017-02-03T04:30:19.787Z,44.53
2017-02-03T04:31:19.771Z,43.96
2017-02-03T04:32:19.761Z,44.15
2017-02-03T04:33:19.744Z,44.62
2017-02-03T04:34:19.731Z,45.1
2017-02-03T04:35:19.715Z,44.81
2017-02-03T04:36:19.703Z,43.2
2017-02-03T04:37:19.688Z,42.82
2017-02-03T04:38:19.675Z,43.87
2017-02-03T04:39:19.696Z,43.01
2017-02-03T04:40:19.647Z,43.39
2017-02-03T04:41:19.630Z,41.59
2017-02-03T04:42:19.619Z,39.49
2017-02-03T04:43:19.606Z,39.22
2017-02-03T04:44:19.593Z,39.58
2017-02-03T04:45:19.586Z,39.96
2017-02-03T04:46:19.568Z,38.54
2017-02-03T04:47:19.553Z,36.55
2017-02-03T04:48:19.538Z,36.08
2017-02-03T04:49:19.523Z,35.79
2017-02-03T04:50:19.507Z,36.65
2017-02-03T04:51:19.494Z,37.5
2017-02-03T04:52:19.481Z,37.78
2017-02-03T04:53:19.467Z,36.93
2017-02-03T04:54:19.453Z,37.31
2017-02-03T04:55:19.437Z,37.02
2017-02-03T04:56:19.425Z,36.55
2017-02-03T04:57:19.410Z,36.27
2017-02-03T04:58:19.393Z,37.5
2017-02-03T04:59:19.382Z,37.97
2017-02-03T05:00:19.376Z,38.26
2017-02-03T05:01:19.353Z,37.31
2017-02-03T05:02:19.340Z,35.89
2017-02-03T05:03:19.326Z,36.08
2017-02-03T05:04:19.313Z,35.13
2017-02-03T05:05:19.296Z,35.41
2017-02-03T05:06:19.283Z,34.75
2017-02-03T05:07:19.269Z,33.62
2017-02-03T05:08:19.285Z,32.95
2017-02-03T05:09:19.243Z,33.81
2017-02-03T05:10:19.224Z,33.9
2017-02-03T05:11:19.214Z,32.39
2017-02-03T05:12:19.199Z,33.33
2017-02-03T05:13:19.188Z,33.9
2017-02-03T05:14:19.172Z,33.52
2017-02-03T05:15:19.159Z,36.17
2017-02-03T05:16:18.748Z,37.02
2017-02-03T05:17:19.132Z,37.97
2017-02-03T05:18:19.119Z,37.97
2017-02-03T05:19:19.101Z,38.37
2017-02-03T05:20:19.089Z,38.37
2017-02-03T05:21:19.071Z,38.45
2017-02-03T05:22:19.057Z,38.09
2017-02-03T05:23:19.044Z,39.98
2017-02-03T05:24:19.034Z,38.56
2017-02-03T05:25:19.017Z,38.37
2017-02-03T05:26:19.006Z,38.94
2017-02-03T05:27:18.991Z,39.79
2017-02-03T05:28:18.980Z,39.51
2017-02-03T05:29:18.963Z,41.88
2017-02-03T05:30:18.951Z,43.58
2017-02-03T05:31:18.933Z,47.18
2017-02-03T05:32:18.920Z,48.32
2017-02-03T05:33:18.906Z,47.37
2017-02-03T05:34:18.893Z,46.52
2017-02-03T05:35:18.878Z,47.37
2017-02-03T05:36:18.866Z,49.36
2017-02-03T05:37:18.849Z,50.31
2017-02-03T05:38:18.833Z,49.74
2017-02-03T05:39:18.823Z,47.66
2017-02-03T05:40:18.808Z,46.23
2017-02-03T05:41:18.794Z,46.33
2017-02-03T05:42:18.785Z,48.6
2017-02-03T05:43:18.765Z,49.27
2017-02-03T05:44:18.752Z,51.26
2017-02-03T05:45:18.738Z,53.15
2017-02-03T05:46:18.726Z,53.91
2017-02-03T05:47:18.714Z,55.62
2017-02-03T05:48:18.695Z,55.99
2017-02-03T05:49:18.684Z,56.09
2017-02-03T05:50:18.674Z,56.37
2017-02-03T05:51:18.656Z,57.23
2017-02-03T05:52:18.643Z,57.51
2017-02-03T05:53:18.627Z,61.4
2017-02-03T05:54:18.616Z,64.23
2017-02-03T05:55:18.599Z,64.04
2017-02-03T05:56:18.589Z,63.76
2017-02-03T05:57:18.571Z,63.95
2017-02-03T05:58:18.158Z,65.56
2017-02-03T05:59:18.545Z,66.03
2017-02-03T06:00:18.532Z,65.84
2017-02-03T06:01:18.517Z,65.75
2017-02-03T06:02:18.500Z,66.13
2017-02-03T06:03:18.489Z,65.94
2017-02-03T06:04:18.477Z,65.28
2017-02-03T06:05:18.459Z,63.67
2017-02-03T06:06:18.449Z,63.67
2017-02-03T06:07:18.039Z,62.82
2017-02-03T06:08:18.417Z,62.82
2017-02-03T06:09:18.407Z,62.43
2017-02-03T06:10:18.394Z,61.87
2017-02-03T06:11:18.381Z,62.62
2017-02-03T06:12:18.368Z,61.87
2017-02-03T06:13:18.355Z,62.34
2017-02-03T06:14:18.336Z,61.68
2017-02-03T06:15:18.323Z,62.24
2017-02-03T06:16:18.315Z,62.15
2017-02-03T06:17:18.301Z,63.57
2017-02-03T06:18:18.286Z,63.95
2017-02-03T06:19:18.271Z,62.82
2017-02-03T06:20:18.257Z,63.29
2017-02-03T06:21:18.243Z,62.82
2017-02-03T06:22:18.230Z,62.91
2017-02-03T06:23:18.216Z,63.2
2017-02-03T06:24:18.199Z,63.1
2017-02-03T06:25:18.192Z,64.04
2017-02-03T06:26:18.210Z,63.76
2017-02-03T06:27:18.162Z,65.94
2017-02-03T06:28:18.150Z,66.8
2017-02-03T06:29:18.132Z,69.07
2017-02-03T06:30:18.118Z,68.4
2017-02-03T06:31:18.107Z,68.4
2017-02-03T06:32:18.094Z,66.89
2017-02-03T06:33:18.083Z,65.37
2017-02-03T06:34:18.064Z,64.71
2017-02-03T06:35:18.053Z,64.04
2017-02-03T06:36:18.040Z,64.9
2017-02-03T06:37:18.025Z,64.14
2017-02-03T06:38:18.010Z,63.95
2017-02-03T06:39:17.997Z,65.75
2017-02-03T06:40:17.981Z,65.47
2017-02-03T06:41:17.970Z,65.37
2017-02-03T06:42:17.952Z,65.56
2017-02-03T06:43:17.942Z,66.03
2017-02-03T06:44:17.926Z,66.51
2017-02-03T06:45:17.911Z,65.37
2017-02-03T06:46:17.898Z,65.56
2017-02-03T06:47:17.920Z,65.28
2017-02-03T06:48:17.871Z,64.23
2017-02-03T06:49:17.858Z,64.52
2017-02-03T06:50:17.845Z,65
2017-02-03T06:51:17.835Z,64.14
2017-02-03T06:52:17.815Z,64.61
2017-02-03T06:53:17.805Z,63.2
2017-02-03T06:54:17.791Z,61.96
2017-02-03T06:55:17.777Z,62.53
2017-02-03T06:56:17.761Z,61.68
2017-02-03T06:57:17.745Z,61.96
2017-02-03T06:58:17.738Z,62.82
2017-02-03T06:59:17.720Z,64.23
2017-02-03T07:00:17.703Z,61.11
2017-02-03T07:01:17.694Z,58.07
2017-02-03T07:02:17.678Z,57.79
2017-02-03T07:03:17.670Z,59.78
2017-02-03T07:04:17.649Z,57.23
2017-02-03T07:05:17.638Z,56.56
2017-02-03T07:06:17.626Z,57.89
2017-02-03T07:07:17.612Z,58.74
2017-02-03T07:08:17.602Z,61.11
2017-02-03T07:09:17.584Z,61.77
2017-02-03T07:10:17.570Z,60.73
2017-02-03T07:11:17.555Z,62.28
2017-02-03T07:12:17.545Z,63.57
2017-02-03T07:13:17.528Z,63.57
2017-02-03T07:14:17.518Z,63.95
2017-02-03T07:15:17.501Z,63.76
2017-02-03T07:16:17.491Z,62.66
2017-02-03T07:17:17.476Z,62.18
2017-02-03T07:18:17.459Z,62.37
2017-02-03T07:19:17.446Z,63.13
2017-02-03T07:20:17.432Z,63.95
2017-02-03T07:21:17.454Z,63.89
2017-02-03T07:22:17.404Z,66.83
2017-02-03T07:23:17.429Z,67.96
2017-02-03T07:24:17.378Z,67.77
2017-02-03T07:25:17.374Z,68.54
2017-02-03T07:26:17.348Z,68.63
2017-02-03T07:27:17.364Z,70.53
2017-02-03T07:28:17.326Z,71
2017-02-03T07:29:17.316Z,73.75
2017-02-03T07:30:17.348Z,76.12
2017-02-03T07:31:17.284Z,76.03
2017-02-03T07:32:17.604Z,76.21
2017-02-03T07:33:17.258Z,76.21
2017-02-03T07:34:17.244Z,75.93
2017-02-03T07:35:17.232Z,76.68
2017-02-03T07:36:17.218Z,76.5
2017-02-03T07:37:17.395Z,77.73
2017-02-03T07:38:17.191Z,78.96
2017-02-03T07:39:17.177Z,79.06
2017-02-03T07:40:17.164Z,78.3
2017-02-03T07:41:17.155Z,79.44
2017-02-03T07:42:17.136Z,80.67
2017-02-03T07:43:17.126Z,80.57
2017-02-03T07:44:16.711Z,80.67
2017-02-03T07:45:17.100Z,80.86
2017-02-03T07:46:17.092Z,82.94
2017-02-03T07:47:17.099Z,83.8
2017-02-03T07:48:16.658Z,84.46
2017-02-03T07:49:17.049Z,82.75
2017-02-03T07:50:16.630Z,82.28
2017-02-03T07:51:17.023Z,83.89
2017-02-03T07:52:17.005Z,83.42
2017-02-03T07:53:16.990Z,80.67
2017-02-03T07:54:16.979Z,72.52
2017-02-03T07:55:16.997Z,68.54
2017-02-03T07:56:16.951Z,62.18
2017-02-03T07:57:16.937Z,63.51
2017-02-03T07:58:16.924Z,63.45
2017-02-03T07:59:16.912Z,61.74
2017-02-03T08:00:16.901Z,64.84
2017-02-03T08:01:16.883Z,64.2
2017-02-03T08:02:16.874Z,63.82
2017-02-03T08:03:16.860Z,66.1
2017-02-03T08:04:16.850Z,65.91
2017-02-03T08:05:16.836Z,63.35
2017-02-03T08:06:16.419Z,64.87
2017-02-03T08:07:16.810Z,65.06
2017-02-03T08:08:16.797Z,67.9
2017-02-03T08:09:16.782Z,69.42
2017-02-03T08:10:16.795Z,70.28
2017-02-03T08:11:16.866Z,70.75
2017-02-03T08:12:16.809Z,70.94
2017-02-03T08:13:16.799Z,69.33
2017-02-03T08:14:16.717Z,70.69
2017-02-03T08:15:16.704Z,75.87
2017-02-03T08:16:16.696Z,75.91
2017-02-03T08:17:16.680Z,76.29
2017-02-03T08:18:16.669Z,76.1
2017-02-03T08:19:16.660Z,77.81
2017-02-03T08:20:16.644Z,77.33
2017-02-03T08:21:16.635Z,84.45
2017-02-03T08:22:16.645Z,84.64
2017-02-03T08:23:16.610Z,90.33
2017-02-03T08:24:16.596Z,93.18
2017-02-03T08:25:16.584Z,89.2
2017-02-03T08:26:16.570Z,85.97
2017-02-03T08:27:16.558Z,85.49
2017-02-03T08:28:16.543Z,87.2
2017-02-03T08:29:16.537Z,89.76
2017-02-03T08:30:16.522Z,93.18
2017-02-03T08:31:16.530Z,92.8
2017-02-03T08:32:16.100Z,92.23
2017-02-03T08:33:16.488Z,95.65
2017-02-03T08:34:16.473Z,97.74
2017-02-03T08:35:16.460Z,96.5
2017-02-03T08:36:16.445Z,94.79
2017-02-03T08:37:16.440Z,95.93
2017-02-03T08:38:16.429Z,94.03
2017-02-03T08:39:16.413Z,93.94
2017-02-03T08:40:16.406Z,95.93
2017-02-03T08:41:16.392Z,97.55
2017-02-03T08:42:16.376Z,98.02
2017-02-03T08:43:16.367Z,98.3
2017-02-03T08:44:16.355Z,99.99
2017-02-03T08:45:16.344Z,99.99
2017-02-03T08:46:16.332Z,99.99
2017-02-03T08:47:16.320Z,99.99
2017-02-03T08:48:16.306Z,99.99
2017-02-03T08:49:16.297Z,99.99
2017-02-03T08:50:16.283Z,99.99
2017-02-03T08:51:16.272Z,99.99
2017-02-03T08:52:16.259Z,99.99
2017-02-03T08:53:16.247Z,99.99
2017-02-03T08:54:16.250Z,99.99
2017-02-03T08:55:16.222Z,99.99
2017-02-03T08:56:16.219Z,99.99
2017-02-03T08:57:16.201Z,99.99
2017-02-03T08:58:16.189Z,99.99
2017-02-03T08:59:16.177Z,99.99
2017-02-03T09:00:16.166Z,99.99
2017-02-03T09:01:16.152Z,99.99
2017-02-03T09:02:16.145Z,99.99
2017-02-03T09:03:16.131Z,99.99
2017-02-03T09:04:16.118Z,99.99
2017-02-03T09:05:16.107Z,99.99
2017-02-03T09:06:16.094Z,99.99
2017-02-03T09:07:15.686Z,99.99
2017-02-03T09:08:16.069Z,99.99
2017-02-03T09:09:16.061Z,99.99
2017-02-03T09:10:16.049Z,99.99
2017-02-03T09:11:16.040Z,99.99
2017-02-03T09:12:16.027Z,99.99
2017-02-03T09:13:16.014Z,99.99
2017-02-03T09:14:16.003Z,99.99
2017-02-03T09:15:15.992Z,99.99
2017-02-03T09:16:15.980Z,99.99
2017-02-03T09:17:15.968Z,99.99
2017-02-03T09:18:15.959Z,99.99
2017-02-03T09:19:15.945Z,99.99
2017-02-03T09:20:15.933Z,99.99
2017-02-03T09:21:15.923Z,99.99
2017-02-03T09:22:15.914Z,99.99
2017-02-03T09:23:15.902Z,99.99
2017-02-03T09:24:15.889Z,99.99
2017-02-03T09:25:15.878Z,99.99
2017-02-03T09:26:15.871Z,99.99
2017-02-03T09:27:15.859Z,99.99
2017-02-03T09:28:15.846Z,99.99
2017-02-03T09:29:15.835Z,99.99
2017-02-03T09:30:15.826Z,99.99
2017-02-03T09:31:15.815Z,99.99
2017-02-03T09:32:15.801Z,99.99
2017-02-03T09:33:15.793Z,99.99
2017-02-03T09:34:15.780Z,99.99
2017-02-03T09:35:15.768Z,99.99
2017-02-03T09:36:15.761Z,99.99
2017-02-03T09:37:15.744Z,99.99
2017-02-03T09:38:15.738Z,99.99
2017-02-03T09:39:15.724Z,99.99
2017-02-03T09:40:15.718Z,99.99
2017-02-03T09:41:15.706Z,99.99
2017-02-03T09:42:15.696Z,99.99
2017-02-03T09:43:15.684Z,99.99
2017-02-03T09:44:15.671Z,99.99
2017-02-03T09:45:15.662Z,99.99
2017-02-03T09:46:15.655Z,99.99
2017-02-03T09:47:15.642Z,99.99
2017-02-03T09:48:15.629Z,99.99
2017-02-03T09:49:15.624Z,99.99
2017-02-03T09:50:15.608Z,99.99
2017-02-03T09:51:15.201Z,99.99
2017-02-03T09:52:15.586Z,99.99
2017-02-03T09:53:15.578Z,99.99
2017-02-03T09:54:15.569Z,99.99
2017-02-03T09:55:15.157Z,99.99
2017-02-03T09:56:15.542Z,99.99
2017-02-03T09:57:15.139Z,99.99
2017-02-03T09:58:15.525Z,99.99
2017-02-03T09:59:15.511Z,99.99
2017-02-03T10:00:15.500Z,99.99
2017-02-03T10:01:15.493Z,99.99
2017-02-03T10:02:15.480Z,99.99
2017-02-03T10:03:15.470Z,99.99
2017-02-03T10:04:15.462Z,99.99
2017-02-03T10:05:15.449Z,99.99
2017-02-03T10:06:15.440Z,99.99
2017-02-03T10:07:15.428Z,99.99
2017-02-03T10:08:15.420Z,99.99
2017-02-03T10:09:15.406Z,99.99
2017-02-03T10:10:15.394Z,99.99
2017-02-03T10:11:14.990Z,99.99
2017-02-03T10:12:14.981Z,99.99
2017-02-03T10:13:14.967Z,99.99
2017-02-03T10:14:15.352Z,99.99
2017-02-03T10:15:15.344Z,99.99
2017-02-03T10:16:15.335Z,99.99
2017-02-03T10:17:15.325Z,99.99
2017-02-03T10:18:15.310Z,99.99
2017-02-03T10:19:15.302Z,99.99
2017-02-03T10:20:15.294Z,99.99
2017-02-03T10:21:15.282Z,99.99
2017-02-03T10:22:15.268Z,99.99
2017-02-03T10:23:15.258Z,99.99
2017-02-03T10:24:15.251Z,99.99
2017-02-03T10:25:15.239Z,99.99
2017-02-03T10:26:15.226Z,99.99
2017-02-03T10:27:15.223Z,99.99
2017-02-03T10:28:15.210Z,99.99
2017-02-03T10:29:15.197Z,99.99
2017-02-03T10:30:15.189Z,99.99
2017-02-03T10:31:15.179Z,99.99
2017-02-03T10:32:15.169Z,99.99
2017-02-03T10:33:15.157Z,99.99
2017-02-03T10:34:15.144Z,99.99
2017-02-03T10:35:15.135Z,99.99
2017-02-03T10:36:15.124Z,99.99
2017-02-03T10:37:15.114Z,99.99
2017-02-03T10:38:15.104Z,99.99
2017-02-03T10:39:15.091Z,99.99
2017-02-03T10:40:15.083Z,99.99
2017-02-03T10:41:14.679Z,99.99
2017-02-03T10:42:14.669Z,99.99
2017-02-03T10:43:15.058Z,99.99
2017-02-03T10:44:15.047Z,99.99
2017-02-03T10:45:15.035Z,99.99
2017-02-03T10:46:15.027Z,99.99
2017-02-03T10:47:15.012Z,99.99
2017-02-03T10:48:15.004Z,99.99
2017-02-03T10:49:14.995Z,99.99
2017-02-03T10:50:14.985Z,99.99
2017-02-03T10:51:14.975Z,99.99
2017-02-03T10:52:14.567Z,99.99
2017-02-03T10:53:14.955Z,99.99
2017-02-03T10:54:14.948Z,99.99
2017-02-03T10:55:14.938Z,99.99
2017-02-03T10:56:14.926Z,99.99
2017-02-03T10:57:14.913Z,99.99
2017-02-03T10:58:14.911Z,99.99
2017-02-03T10:59:14.896Z,99.99
2017-02-03T11:00:14.890Z,99.99
2017-02-03T11:01:14.877Z,99.99
2017-02-03T11:02:14.870Z,99.99
2017-02-03T11:03:14.861Z,99.99
2017-02-03T11:04:14.849Z,99.99
2017-02-03T11:05:14.841Z,99.99
2017-02-03T11:06:14.833Z,99.99
2017-02-03T11:07:14.819Z,99.99
2017-02-03T11:08:14.811Z,99.99
2017-02-03T11:09:14.408Z,99.99
2017-02-03T11:10:14.792Z,99.99
2017-02-03T11:11:14.780Z,99.99
2017-02-03T11:12:14.769Z,99.99
2017-02-03T11:13:14.763Z,99.99
2017-02-03T11:14:14.760Z,99.99
2017-02-03T11:15:14.744Z,99.99
2017-02-03T11:16:14.732Z,99.99
2017-02-03T11:17:14.722Z,99.99
2017-02-03T11:18:14.715Z,99.99
2017-02-03T11:19:14.306Z,99.99
2017-02-03T11:20:14.691Z,99.99
2017-02-03T11:21:14.684Z,99.99
2017-02-03T11:22:14.674Z,99.99
2017-02-03T11:23:14.665Z,99.99
2017-02-03T11:24:14.652Z,99.99
2017-02-03T11:25:14.643Z,99.99
2017-02-03T11:26:14.636Z,99.99
2017-02-03T11:27:14.626Z,99.99
2017-02-03T11:28:14.616Z,99.99
2017-02-03T11:29:14.209Z,99.99
2017-02-03T11:30:14.200Z,99.99
2017-02-03T11:31:14.587Z,99.99
2017-02-03T11:32:14.579Z,99.99
2017-02-03T11:33:14.570Z,99.99
2017-02-03T11:34:14.560Z,99.99
2017-02-03T11:35:14.550Z,99.99
2017-02-03T11:36:14.541Z,99.99
2017-02-03T11:37:14.534Z,99.99
2017-02-03T11:38:14.123Z,99.99
2017-02-03T11:39:14.516Z,99.99
2017-02-03T11:40:14.506Z,99.99
2017-02-03T11:41:14.491Z,99.99
2017-02-03T11:42:14.484Z,99.99
2017-02-03T11:43:14.475Z,99.99
2017-02-03T11:44:14.465Z,99.99
2017-02-03T11:45:14.457Z,99.99
2017-02-03T11:46:14.445Z,99.99
2017-02-03T11:47:14.439Z,99.99
2017-02-03T11:48:14.427Z,99.99
2017-02-03T11:49:14.018Z,99.99
2017-02-03T11:50:14.411Z,99.99
2017-02-03T11:51:14.404Z,99.99
2017-02-03T11:52:14.390Z,99.99
2017-02-03T11:53:14.380Z,99.99
2017-02-03T11:54:14.371Z,99.99
2017-02-03T11:55:14.363Z,99.99
2017-02-03T11:56:14.351Z,99.99
2017-02-03T11:57:14.342Z,99.99
2017-02-03T11:58:14.333Z,99.99
2017-02-03T11:59:14.323Z,99.99
2017-02-03T12:00:14.314Z,99.99
2017-02-03T12:01:14.306Z,99.99
2017-02-03T12:02:14.295Z,99.99
2017-02-03T12:03:14.288Z,99.99
2017-02-03T12:04:14.273Z,99.99
2017-02-03T12:05:14.268Z,99.99
2017-02-03T12:06:14.254Z,99.99
2017-02-03T12:07:14.254Z,99.99
2017-02-03T12:08:14.238Z,99.99
2017-02-03T12:09:14.229Z,99.99
2017-02-03T12:10:14.219Z,99.99
2017-02-03T12:11:14.207Z,99.99
2017-02-03T12:12:14.203Z,99.99
2017-02-03T12:13:14.197Z,99.99
2017-02-03T12:14:14.184Z,99.99
2017-02-03T12:15:14.174Z,99.99
2017-02-03T12:16:14.165Z,99.99
2017-02-03T12:17:14.154Z,99.99
2017-02-03T12:18:13.747Z,99.99
2017-02-03T12:19:14.132Z,99.99
2017-02-03T12:20:14.127Z,99.99
2017-02-03T12:21:14.117Z,99.99
2017-02-03T12:22:14.104Z,99.99
2017-02-03T12:23:14.098Z,99.99
2017-02-03T12:24:13.692Z,99.99
2017-02-03T12:25:14.078Z,99.99
2017-02-03T12:26:14.069Z,99.99
2017-02-03T12:27:14.061Z,99.99
2017-02-03T12:28:14.047Z,99.99
2017-02-03T12:29:14.071Z,99.99
2017-02-03T12:30:14.030Z,99.99
2017-02-03T12:31:14.022Z,99.99
2017-02-03T12:32:14.006Z,99.99
2017-02-03T12:33:14.000Z,99.99
2017-02-03T12:34:13.991Z,99.99
2017-02-03T12:35:13.980Z,99.99
2017-02-03T12:36:13.968Z,99.99
2017-02-03T12:37:13.959Z,99.99
2017-02-03T12:38:13.953Z,99.99
2017-02-03T12:39:13.943Z,99.99
2017-02-03T12:40:13.932Z,99.99
2017-02-03T12:41:13.923Z,99.99
2017-02-03T12:42:13.913Z,99.99
2017-02-03T12:43:13.903Z,99.99
2017-02-03T12:44:13.891Z,99.99
2017-02-03T12:45:13.880Z,99.99
2017-02-03T12:46:13.876Z,99.99
2017-02-03T12:47:13.862Z,99.99
2017-02-03T12:48:13.857Z,99.99
2017-02-03T12:49:13.846Z,99.99
2017-02-03T12:50:13.839Z,99.99
2017-02-03T12:51:13.824Z,99.99
2017-02-03T12:52:13.821Z,99.99
2017-02-03T12:53:13.806Z,99.99
2017-02-03T12:54:13.797Z,99.99